Главная страница
METAR-TAF:

METAR-TAF

Аэропорты :

Вардё, Норвегия

широта: 70-21N, долгота: 031-03E, высота над уровнем моря: 12 м

Текущие метеонаблюдения

Эта сводка был подготовлена 42 минут назад, в 19:20 UTC
Ветер 6 Узел от восточно-юго-восточный
Температура 5°C
Влажность 87%
Давление 1018 hPa
Видимость 10 км и более

METAR: ENSS 131920Z AUTO 12006KT 9999 OVC010/// 05/03 Q1018 RMK WIND 0500FT 11008KT

Время: 22:02 (20:02 UTC)

Прогноз

Эта сводка был подготовлена 6 часа и 2 минут назад, в 14:00 UTC
Прогноз действительный с 13-го 15 UTC до 13-го 21 UTC
Ветер 5 Узел от восточно-юго-восточный
Видимость 10 км и более
Рассеянная облачность на высоте 1200 фута
временами
С 13-го 15 UTC до 13-го 19 UTC
Отдельные облака на высоте 1000 фута
Рассеянная облачность на высоте 3000 фута
временами
С 13-го 19 UTC до 13-го 21 UTC
Рассеянная облачность на высоте 800 фута

TAF: ENSS 131400Z 1315/1321 11005KT 9999 BKN012 TEMPO 1315/1319 SCT010 BKN030 TEMPO 1319/1321 BKN008

Метеонаблюдения и прогнозы для более 4000 аэропортов (сводки METAR и TAF).

Имеющиеся станции представлены на карте желтыми и красными точками.

Чтобы увидеть название станции, наведите на нее мышь.

Затем щелкните, чтобы увидеть метеонаблюдения и метеопрогнозы.

Управление картой: чтобы увеличить масштаб, щелкните зеленые кнопки с черным крестиком; чтобы уменьшить масштаб, щелкните зеленую кнопку с тире; для просмотра соседних карт щелкайте зеленые стрелки.


METAR-TAF: